createdAt,value
2018-01-11T00:00:58.022Z,20.39
2018-01-11T00:02:07.641Z,20.52
2018-01-11T00:03:16.591Z,20.59
2018-01-11T00:04:25.303Z,20.52
2018-01-11T00:05:34.259Z,20.52
2018-01-11T00:06:43.467Z,20.52
2018-01-11T00:07:52.929Z,20.39
2018-01-11T00:09:01.870Z,20.42
2018-01-11T00:10:11.087Z,20.52
2018-01-11T00:11:20.562Z,20.38
2018-01-11T00:12:29.762Z,20.51
2018-01-11T00:13:38.710Z,20.54
2018-01-11T00:14:47.666Z,20.59
2018-01-11T00:15:56.610Z,20.48
2018-01-11T00:17:06.099Z,20.5
2018-01-11T00:18:14.788Z,20.47
2018-01-11T00:19:23.493Z,20.55
2018-01-11T00:20:33.240Z,20.43
2018-01-11T00:21:41.971Z,20.38
2018-01-11T00:22:50.917Z,20.41
2018-01-11T00:24:00.119Z,20.47
2018-01-11T00:25:09.072Z,20.52
2018-01-11T00:26:17.745Z,20.41
2018-01-11T00:27:26.685Z,20.42
2018-01-11T00:28:35.935Z,20.52
2018-01-11T00:29:44.960Z,20.52
2018-01-11T00:30:53.933Z,20.52
2018-01-11T00:32:02.888Z,20.38
2018-01-11T00:33:11.820Z,20.43
2018-01-11T00:34:21.554Z,20.48
2018-01-11T00:35:31.040Z,20.57
2018-01-11T00:36:40.257Z,20.48
2018-01-11T00:37:49.714Z,20.51
2018-01-11T00:38:58.914Z,20.43
2018-01-11T00:40:07.870Z,20.43
2018-01-11T00:41:16.834Z,20.41
2018-01-11T00:42:25.779Z,20.5
2018-01-11T00:43:34.479Z,20.5
2018-01-11T00:44:43.160Z,20.43
2018-01-11T00:45:52.360Z,20.51
2018-01-11T00:47:02.076Z,20.52
2018-01-11T00:48:11.550Z,20.43
2018-01-11T00:49:20.499Z,20.41
2018-01-11T00:50:29.702Z,20.41
2018-01-11T00:51:38.392Z,20.43
2018-01-11T00:52:47.621Z,20.41
2018-01-11T00:53:56.560Z,20.47
2018-01-11T00:55:05.508Z,20.43
2018-01-11T00:56:14.467Z,20.39
2018-01-11T00:57:23.666Z,20.41
2018-01-11T00:58:32.901Z,20.39
2018-01-11T00:59:42.099Z,20.38
2018-01-11T01:00:51.319Z,20.42
2018-01-11T01:02:00.796Z,20.41
2018-01-11T01:03:09.998Z,20.47
2018-01-11T01:04:18.939Z,20.42
2018-01-11T01:05:28.153Z,20.42
2018-01-11T01:06:37.099Z,20.42
2018-01-11T01:07:46.305Z,20.41
2018-01-11T01:08:55.520Z,20.41
2018-01-11T01:10:05.006Z,20.33
2018-01-11T01:11:13.981Z,20.41
2018-01-11T01:12:23.436Z,20.39
2018-01-11T01:13:32.375Z,20.42
2018-01-11T01:14:41.066Z,20.36
2018-01-11T01:15:50.565Z,20.36
2018-01-11T01:16:59.758Z,20.36
2018-01-11T01:18:08.962Z,20.41
2018-01-11T01:19:17.959Z,20.38
2018-01-11T01:20:27.451Z,20.36
2018-01-11T01:21:36.423Z,20.36
2018-01-11T01:22:45.384Z,20.42
2018-01-11T01:23:54.356Z,20.32
2018-01-11T01:25:03.559Z,20.33
2018-01-11T01:26:12.785Z,20.35
2018-01-11T01:27:21.776Z,20.36
2018-01-11T01:28:31.233Z,20.36
2018-01-11T01:29:40.170Z,20.33
2018-01-11T01:30:48.857Z,20.39
2018-01-11T01:31:58.319Z,20.36
2018-01-11T01:33:06.998Z,20.42
2018-01-11T01:34:16.468Z,20.38
2018-01-11T01:35:25.680Z,20.39
2018-01-11T01:36:34.631Z,20.42
2018-01-11T01:37:43.566Z,20.38
2018-01-11T01:38:52.792Z,20.39
2018-01-11T01:40:01.999Z,20.39
2018-01-11T01:41:10.941Z,20.41
2018-01-11T01:42:20.156Z,20.38
2018-01-11T01:43:29.370Z,20.35
2018-01-11T01:44:38.576Z,20.35
2018-01-11T01:45:47.819Z,20.33
2018-01-11T01:46:57.282Z,20.32
2018-01-11T01:48:06.749Z,20.39
2018-01-11T01:49:15.957Z,20.35
2018-01-11T01:50:25.160Z,20.31
2018-01-11T01:51:33.836Z,20.39
2018-01-11T01:52:42.511Z,20.38
2018-01-11T01:53:52.025Z,20.38
2018-01-11T01:55:00.959Z,20.35
2018-01-11T01:56:10.170Z,20.35
2018-01-11T01:57:19.116Z,20.33
2018-01-11T01:58:28.571Z,20.39
2018-01-11T01:59:37.796Z,20.38
2018-01-11T02:00:46.528Z,20.38
2018-01-11T02:01:55.220Z,20.39
2018-01-11T02:03:04.761Z,20.33
2018-01-11T02:04:13.709Z,20.39
2018-01-11T02:05:22.925Z,20.38
2018-01-11T02:06:32.193Z,20.38
2018-01-11T02:07:41.672Z,20.41
2018-01-11T02:08:50.617Z,20.38
2018-01-11T02:09:59.304Z,20.33
2018-01-11T02:11:08.509Z,20.38
2018-01-11T02:12:17.193Z,20.36
2018-01-11T02:13:25.875Z,20.35
2018-01-11T02:14:34.855Z,20.36
2018-01-11T02:15:44.047Z,20.41
2018-01-11T02:16:53.337Z,20.41
2018-01-11T02:18:02.821Z,20.31
2018-01-11T02:19:12.349Z,20.38
2018-01-11T02:20:21.828Z,20.31
2018-01-11T02:21:30.820Z,20.33
2018-01-11T02:22:39.574Z,20.39
2018-01-11T02:23:48.515Z,20.42
2018-01-11T02:24:58.054Z,20.42
2018-01-11T02:26:07.295Z,20.32
2018-01-11T02:27:16.230Z,20.35
2018-01-11T02:28:25.701Z,20.35
2018-01-11T02:29:35.205Z,20.38
2018-01-11T02:30:44.674Z,20.35
2018-01-11T02:31:53.621Z,20.38
2018-01-11T02:33:02.815Z,20.35
2018-01-11T02:34:11.753Z,20.28
2018-01-11T02:35:20.704Z,20.39
2018-01-11T02:36:29.662Z,20.39
2018-01-11T02:37:38.601Z,20.33
2018-01-11T02:38:47.806Z,20.29
2018-01-11T02:39:56.544Z,20.31
2018-01-11T02:41:06.292Z,20.32
2018-01-11T02:42:15.493Z,20.33
2018-01-11T02:43:24.736Z,20.28
2018-01-11T02:44:33.422Z,20.32
2018-01-11T02:45:42.704Z,20.29
2018-01-11T02:46:51.601Z,20.28
2018-01-11T02:48:00.561Z,20.31
2018-01-11T02:49:09.785Z,20.29
2018-01-11T02:50:18.743Z,20.28
2018-01-11T02:51:27.449Z,20.32
2018-01-11T02:52:36.417Z,20.33
2018-01-11T02:53:45.363Z,20.31
2018-01-11T02:54:54.558Z,20.31
2018-01-11T02:56:03.773Z,20.31
2018-01-11T02:57:13.033Z,20.29
2018-01-11T02:58:22.255Z,20.26
2018-01-11T02:59:31.484Z,20.33
2018-01-11T03:00:41.228Z,20.31
2018-01-11T03:01:50.340Z,20.36
2018-01-11T03:02:59.941Z,20.28
2018-01-11T03:04:08.636Z,20.28
2018-01-11T03:05:17.657Z,20.31
2018-01-11T03:06:26.897Z,20.31
2018-01-11T03:07:35.848Z,20.23
2018-01-11T03:08:45.055Z,20.16
2018-01-11T03:09:54.275Z,20.29
2018-01-11T03:11:02.970Z,20.26
2018-01-11T03:12:12.468Z,20.26
2018-01-11T03:13:21.951Z,20.29
2018-01-11T03:14:30.641Z,20.29
2018-01-11T03:15:40.115Z,20.28
2018-01-11T03:16:49.609Z,20.32
2018-01-11T03:17:58.821Z,20.29
2018-01-11T03:19:08.312Z,20.35
2018-01-11T03:20:17.536Z,20.31
2018-01-11T03:21:26.485Z,20.26
2018-01-11T03:22:35.427Z,20.31
2018-01-11T03:23:44.931Z,20.2
2018-01-11T03:24:53.901Z,20.32
2018-01-11T03:26:02.843Z,20.29
2018-01-11T03:27:12.065Z,20.26
2018-01-11T03:28:21.315Z,20.29
2018-01-11T03:29:30.546Z,20.29
2018-01-11T03:30:40.321Z,20.24
2018-01-11T03:31:49.818Z,20.24
2018-01-11T03:32:58.768Z,20.29
2018-01-11T03:34:08.272Z,20.29
2018-01-11T03:35:18.028Z,20.24
2018-01-11T03:36:26.735Z,20.24
2018-01-11T03:37:36.205Z,20.28
2018-01-11T03:38:45.675Z,20.31
2018-01-11T03:39:54.866Z,20.32
2018-01-11T03:41:03.829Z,20.33
2018-01-11T03:42:13.320Z,20.29
2018-01-11T03:43:22.546Z,20.26
2018-01-11T03:44:32.036Z,20.31
2018-01-11T03:45:40.741Z,20.31
2018-01-11T03:46:50.469Z,20.29
2018-01-11T03:47:59.447Z,20.29
2018-01-11T03:49:08.928Z,20.29
2018-01-11T03:50:17.895Z,20.33
2018-01-11T03:51:26.875Z,20.31
2018-01-11T03:52:35.819Z,20.28
2018-01-11T03:53:45.065Z,20.33
2018-01-11T03:54:54.535Z,20.26
2018-01-11T03:56:03.765Z,20.28
2018-01-11T03:57:13.253Z,20.32
2018-01-11T03:58:22.234Z,20.35
2018-01-11T03:59:31.183Z,20.28
2018-01-11T04:00:40.423Z,20.31
2018-01-11T04:01:49.637Z,20.32
2018-01-11T04:02:58.590Z,20.31
2018-01-11T04:04:07.792Z,20.35
2018-01-11T04:05:16.746Z,20.31
2018-01-11T04:06:25.949Z,20.29
2018-01-11T04:07:35.241Z,20.24
2018-01-11T04:08:44.976Z,20.24
2018-01-11T04:09:54.198Z,20.35
2018-01-11T04:11:03.185Z,20.26
2018-01-11T04:12:11.862Z,20.33
2018-01-11T04:13:20.548Z,20.35
2018-01-11T04:14:29.743Z,20.32
2018-01-11T04:15:38.450Z,20.26
2018-01-11T04:16:47.393Z,20.29
2018-01-11T04:17:56.849Z,20.31
2018-01-11T04:19:06.063Z,20.33
2018-01-11T04:20:15.363Z,20.32
2018-01-11T04:21:24.363Z,20.32
2018-01-11T04:22:33.584Z,20.29
2018-01-11T04:23:42.796Z,20.28
2018-01-11T04:24:51.492Z,20.32
2018-01-11T04:26:00.497Z,20.24
2018-01-11T04:27:09.999Z,20.29
2018-01-11T04:28:19.015Z,20.26
2018-01-11T04:29:28.228Z,20.24
2018-01-11T04:30:37.430Z,20.31
2018-01-11T04:31:46.673Z,20.28
2018-01-11T04:32:56.420Z,20.28
2018-01-11T04:34:05.888Z,20.31
2018-01-11T04:35:14.832Z,20.18
2018-01-11T04:36:23.794Z,20.31
2018-01-11T04:37:33.266Z,20.28
2018-01-11T04:38:42.495Z,20.24
2018-01-11T04:39:51.439Z,20.31
2018-01-11T04:41:00.669Z,20.28
2018-01-11T04:42:09.867Z,20.26
2018-01-11T04:43:18.828Z,20.26
2018-01-11T04:44:28.602Z,20.31
2018-01-11T04:45:38.068Z,20.26
2018-01-11T04:46:46.790Z,20.31
2018-01-11T04:47:55.776Z,20.29
2018-01-11T04:49:04.712Z,20.28
2018-01-11T04:50:13.678Z,20.18
2018-01-11T04:51:22.897Z,20.21
2018-01-11T04:52:31.850Z,20.17
2018-01-11T04:53:41.329Z,20.28
2018-01-11T04:54:50.545Z,20.28
2018-01-11T04:55:59.773Z,20.31
2018-01-11T04:57:08.988Z,20.23
2018-01-11T04:58:18.478Z,20.17
2018-01-11T04:59:27.442Z,20.2
2018-01-11T05:00:36.940Z,20.21
2018-01-11T05:01:45.890Z,20.23
2018-01-11T05:02:55.138Z,20.26
2018-01-11T05:04:04.089Z,20.26
2018-01-11T05:05:13.564Z,20.29
2018-01-11T05:06:22.801Z,20.28
2018-01-11T05:07:32.018Z,20.26
2018-01-11T05:08:41.480Z,20.29
2018-01-11T05:09:50.686Z,20.32
2018-01-11T05:10:59.426Z,20.17
2018-01-11T05:12:08.371Z,20.2
2018-01-11T05:13:17.310Z,20.28
2018-01-11T05:14:26.549Z,20.18
2018-01-11T05:15:35.754Z,20.21
2018-01-11T05:16:44.688Z,20.29
2018-01-11T05:17:53.939Z,20.17
2018-01-11T05:19:03.156Z,20.21
2018-01-11T05:20:12.378Z,20.24
2018-01-11T05:21:21.337Z,20.17
2018-01-11T05:22:30.072Z,20.2
2018-01-11T05:23:39.311Z,20.28
2018-01-11T05:24:48.246Z,20.16
2018-01-11T05:25:56.937Z,20.17
2018-01-11T05:27:05.889Z,20.26
2018-01-11T05:28:15.100Z,20.23
2018-01-11T05:29:24.556Z,20.29
2018-01-11T05:30:34.037Z,20.17
2018-01-11T05:31:43.246Z,20.2
2018-01-11T05:32:52.204Z,20.2
2018-01-11T05:34:01.425Z,20.14
2018-01-11T05:35:10.640Z,20.28
2018-01-11T05:36:19.601Z,20.32
2018-01-11T05:37:28.806Z,20.29
2018-01-11T05:38:38.307Z,20.35
2018-01-11T05:39:47.771Z,20.32
2018-01-11T05:40:56.980Z,20.42
2018-01-11T05:42:06.456Z,20.43
2018-01-11T05:43:15.663Z,20.52
2018-01-11T05:44:24.879Z,20.57
2018-01-11T05:45:33.827Z,20.61
2018-01-11T05:46:43.047Z,20.7
2018-01-11T05:47:52.278Z,20.66
2018-01-11T05:49:01.223Z,20.7
2018-01-11T05:50:10.778Z,20.79
2018-01-11T05:51:19.481Z,20.82
2018-01-11T05:52:28.677Z,20.88
2018-01-11T05:53:37.370Z,20.95
2018-01-11T05:54:46.592Z,20.99
2018-01-11T05:55:55.577Z,20.97
2018-01-11T05:57:04.278Z,21.06
2018-01-11T05:58:13.225Z,21.12
2018-01-11T05:59:22.706Z,21.16
2018-01-11T06:00:32.195Z,21.22
2018-01-11T06:01:41.391Z,21.25
2018-01-11T06:02:50.595Z,21.24
2018-01-11T06:03:59.553Z,21.34
2018-01-11T06:05:08.753Z,21.38
2018-01-11T06:06:17.944Z,21.34
2018-01-11T06:07:26.918Z,21.37
2018-01-11T06:08:36.150Z,21.5
2018-01-11T06:09:45.364Z,21.53
2018-01-11T06:10:54.076Z,21.54
2018-01-11T06:12:03.286Z,21.65
2018-01-11T06:13:12.502Z,21.65
2018-01-11T06:14:21.747Z,21.72
2018-01-11T06:15:30.733Z,21.74
2018-01-11T06:16:40.203Z,21.75
2018-01-11T06:17:49.173Z,21.86
2018-01-11T06:18:58.133Z,21.84
2018-01-11T06:20:07.345Z,21.98
2018-01-11T06:21:16.101Z,21.99
2018-01-11T06:22:25.042Z,21.84
2018-01-11T06:23:33.991Z,21.96
2018-01-11T06:24:43.187Z,21.99
2018-01-11T06:25:51.869Z,22.06
2018-01-11T06:27:01.105Z,22.24
2018-01-11T06:28:10.602Z,22.22
2018-01-11T06:29:19.581Z,22.18
2018-01-11T06:30:28.254Z,22.24
2018-01-11T06:31:37.463Z,22.3
2018-01-11T06:32:46.396Z,22.39
2018-01-11T06:33:55.604Z,22.4
2018-01-11T06:35:04.840Z,22.45
2018-01-11T06:36:13.790Z,22.46
2018-01-11T06:37:22.999Z,22.37
2018-01-11T06:38:32.527Z,22.51
2018-01-11T06:39:41.804Z,22.52
2018-01-11T06:40:50.764Z,22.52
2018-01-11T06:42:00.267Z,22.57
2018-01-11T06:43:08.975Z,22.65
2018-01-11T06:44:18.506Z,22.6
2018-01-11T06:45:27.715Z,22.68
2018-01-11T06:46:36.949Z,22.65
2018-01-11T06:47:45.631Z,22.67
2018-01-11T06:48:54.845Z,22.79
2018-01-11T06:50:03.815Z,22.7
2018-01-11T06:51:12.796Z,22.77
2018-01-11T06:52:21.835Z,22.77
2018-01-11T06:53:31.036Z,22.77
2018-01-11T06:54:39.976Z,22.77
2018-01-11T06:55:49.147Z,22.83
2018-01-11T06:56:58.117Z,22.85
2018-01-11T06:58:07.846Z,22.83
2018-01-11T06:59:17.068Z,22.8
2018-01-11T07:00:26.534Z,22.85
2018-01-11T07:01:35.771Z,22.76
2018-01-11T07:02:44.976Z,22.8
2018-01-11T07:03:54.488Z,22.8
2018-01-11T07:05:03.731Z,22.7
2018-01-11T07:06:12.944Z,22.73
2018-01-11T07:07:22.410Z,22.77
2018-01-11T07:08:31.374Z,22.7
2018-01-11T07:09:40.865Z,22.68
2018-01-11T07:10:50.094Z,22.68
2018-01-11T07:11:59.065Z,22.62
2018-01-11T07:13:07.751Z,22.57
2018-01-11T07:14:17.020Z,22.67
2018-01-11T07:15:26.521Z,22.54
2018-01-11T07:16:35.767Z,22.55
2018-01-11T07:17:44.724Z,22.61
2018-01-11T07:18:53.958Z,22.58
2018-01-11T07:20:03.435Z,22.61
2018-01-11T07:21:12.666Z,22.55
2018-01-11T07:22:21.693Z,22.6
2018-01-11T07:23:30.656Z,22.39
2018-01-11T07:24:39.866Z,22.45
2018-01-11T07:25:48.567Z,22.43
2018-01-11T07:26:57.787Z,22.36
2018-01-11T07:28:07.309Z,22.37
2018-01-11T07:29:16.259Z,22.25
2018-01-11T07:30:25.536Z,22.3
2018-01-11T07:31:34.818Z,22.22
2018-01-11T07:32:44.069Z,22.28
2018-01-11T07:33:53.044Z,22.22
2018-01-11T07:35:02.803Z,22.14
2018-01-11T07:36:11.522Z,22.14
2018-01-11T07:37:20.755Z,22.18
2018-01-11T07:38:30.001Z,22.05
2018-01-11T07:39:38.761Z,22.06
2018-01-11T07:40:48.025Z,21.99
2018-01-11T07:41:57.509Z,21.99
2018-01-11T07:43:06.770Z,21.94
2018-01-11T07:44:16.514Z,21.98
2018-01-11T07:45:25.477Z,22.03
2018-01-11T07:46:34.728Z,21.92
2018-01-11T07:47:43.696Z,21.92
2018-01-11T07:48:52.934Z,21.92
2018-01-11T07:50:01.935Z,21.91
2018-01-11T07:51:11.201Z,21.96
2018-01-11T07:52:19.909Z,21.82
2018-01-11T07:53:29.143Z,21.8
2018-01-11T07:54:37.854Z,21.77
2018-01-11T07:55:47.100Z,21.82
2018-01-11T07:56:55.872Z,21.79
2018-01-11T07:58:05.641Z,21.71
2018-01-11T07:59:15.124Z,21.74
2018-01-11T08:00:23.812Z,21.72
2018-01-11T08:01:32.509Z,21.69
2018-01-11T08:02:41.459Z,21.64
2018-01-11T08:03:50.958Z,21.64
2018-01-11T08:05:00.182Z,21.62
2018-01-11T08:06:09.417Z,21.59
2018-01-11T08:07:18.113Z,21.59
2018-01-11T08:08:27.082Z,21.61
2018-01-11T08:09:36.298Z,21.56
2018-01-11T08:10:45.517Z,21.58
2018-01-11T08:11:54.340Z,21.58
2018-01-11T08:13:03.554Z,21.58
2018-01-11T08:14:12.509Z,21.49
2018-01-11T08:15:21.200Z,21.56
2018-01-11T08:16:30.936Z,21.53
2018-01-11T08:17:40.416Z,21.54
2018-01-11T08:18:49.133Z,21.43
2018-01-11T08:19:58.107Z,21.4
2018-01-11T08:21:07.152Z,21.46
2018-01-11T08:22:17.172Z,21.46
2018-01-11T08:23:26.695Z,21.4
2018-01-11T08:24:35.932Z,21.4
2018-01-11T08:25:44.689Z,21.38
2018-01-11T08:26:53.621Z,21.4
2018-01-11T08:28:02.324Z,21.46
2018-01-11T08:29:11.544Z,21.35
2018-01-11T08:30:20.510Z,21.35
2018-01-11T08:31:29.219Z,21.4
2018-01-11T08:32:38.201Z,21.35
2018-01-11T08:33:47.436Z,21.4
2018-01-11T08:34:56.388Z,21.34
2018-01-11T08:36:05.602Z,21.34
2018-01-11T08:37:15.336Z,21.35
2018-01-11T08:38:24.111Z,21.32
2018-01-11T08:39:33.331Z,21.28
2018-01-11T08:40:42.023Z,21.38
2018-01-11T08:41:50.980Z,21.32
2018-01-11T08:42:59.758Z,21.29
2018-01-11T08:44:08.976Z,21.28
2018-01-11T08:45:18.451Z,21.24
2018-01-11T08:46:27.659Z,21.28
2018-01-11T08:47:36.622Z,21.29
2018-01-11T08:48:45.577Z,21.24
2018-01-11T08:49:54.798Z,21.32
2018-01-11T08:51:04.041Z,21.24
2018-01-11T08:52:13.256Z,21.24
2018-01-11T08:53:22.497Z,21.27
2018-01-11T08:54:31.450Z,21.28
2018-01-11T08:55:40.935Z,21.24
2018-01-11T08:56:50.146Z,21.25
2018-01-11T08:57:58.832Z,21.22
2018-01-11T08:59:07.790Z,21.24
2018-01-11T09:00:17.313Z,21.17
2018-01-11T09:01:26.271Z,21.24
2018-01-11T09:02:36.006Z,21.17
2018-01-11T09:03:44.973Z,21.19
2018-01-11T09:04:54.188Z,21.25
2018-01-11T09:06:02.914Z,21.21
2018-01-11T09:07:12.128Z,21.25
2018-01-11T09:08:21.863Z,21.24
2018-01-11T09:09:31.334Z,21.22
2018-01-11T09:10:40.539Z,21.27
2018-01-11T09:11:49.525Z,21.21
2018-01-11T09:12:58.475Z,21.22
2018-01-11T09:14:07.995Z,21.17
2018-01-11T09:15:16.946Z,21.21
2018-01-11T09:16:25.901Z,21.22
2018-01-11T09:17:35.107Z,21.14
2018-01-11T09:18:44.379Z,21.17
2018-01-11T09:19:53.797Z,21.24
2018-01-11T09:21:02.999Z,21.22
2018-01-11T09:22:11.991Z,21.22
2018-01-11T09:23:21.469Z,21.24
2018-01-11T09:24:30.940Z,21.19
2018-01-11T09:25:39.711Z,21.21
2018-01-11T09:26:48.947Z,21.25
2018-01-11T09:27:58.160Z,21.21
2018-01-11T09:29:07.396Z,21.24
2018-01-11T09:30:16.617Z,21.24
2018-01-11T09:31:25.603Z,21.17
2018-01-11T09:32:34.857Z,21.24
2018-01-11T09:33:44.081Z,21.21
2018-01-11T09:34:53.610Z,21.29
2018-01-11T09:36:02.603Z,21.27
2018-01-11T09:37:12.092Z,21.24
2018-01-11T09:38:20.790Z,21.21
2018-01-11T09:39:29.586Z,21.17
2018-01-11T09:40:38.288Z,21.28
2018-01-11T09:41:47.246Z,21.27
2018-01-11T09:42:56.794Z,21.27
2018-01-11T09:44:05.774Z,21.29
2018-01-11T09:45:15.003Z,21.29
2018-01-11T09:46:23.962Z,21.31
2018-01-11T09:47:32.920Z,21.32
2018-01-11T09:48:42.406Z,21.29
2018-01-11T09:49:51.101Z,21.31
2018-01-11T09:51:00.058Z,21.29
2018-01-11T09:52:09.334Z,21.28
2018-01-11T09:53:18.609Z,21.28
2018-01-11T09:54:27.849Z,21.28
2018-01-11T09:55:37.086Z,21.32
2018-01-11T09:56:45.784Z,21.28
2018-01-11T09:57:55.014Z,21.31
2018-01-11T09:59:03.998Z,21.29
2018-01-11T10:00:12.945Z,21.34
2018-01-11T10:01:22.451Z,21.31
2018-01-11T10:02:31.678Z,21.31
2018-01-11T10:03:40.639Z,21.34
2018-01-11T10:04:49.611Z,21.35
2018-01-11T10:05:58.830Z,21.34
2018-01-11T10:07:08.046Z,21.4
2018-01-11T10:08:17.538Z,21.4
2018-01-11T10:09:26.620Z,21.4
2018-01-11T10:10:35.628Z,21.37
2018-01-11T10:11:44.591Z,21.35
2018-01-11T10:12:53.281Z,21.37
2018-01-11T10:14:02.504Z,21.38
2018-01-11T10:15:11.451Z,21.4
2018-01-11T10:16:20.451Z,21.37
2018-01-11T10:17:29.398Z,21.4
2018-01-11T10:18:38.361Z,21.4
2018-01-11T10:19:47.309Z,21.37
2018-01-11T10:20:56.069Z,21.37
2018-01-11T10:22:05.125Z,21.34
2018-01-11T10:23:14.087Z,21.43
2018-01-11T10:24:23.051Z,21.4
2018-01-11T10:25:32.286Z,21.42
2018-01-11T10:26:41.767Z,21.34
2018-01-11T10:27:51.020Z,21.44
2018-01-11T10:29:00.755Z,21.42
2018-01-11T10:30:09.985Z,21.43
2018-01-11T10:31:19.471Z,21.42
2018-01-11T10:32:28.431Z,21.49
2018-01-11T10:33:37.910Z,21.46
2018-01-11T10:34:47.156Z,21.47
2018-01-11T10:35:56.203Z,21.42
2018-01-11T10:37:05.166Z,21.46
2018-01-11T10:38:14.169Z,21.46
2018-01-11T10:39:23.394Z,21.44
2018-01-11T10:40:32.082Z,21.5
2018-01-11T10:41:41.556Z,21.37
2018-01-11T10:42:50.259Z,21.4
2018-01-11T10:43:59.204Z,21.47
2018-01-11T10:45:08.175Z,21.44
2018-01-11T10:46:17.401Z,21.34
2018-01-11T10:47:26.356Z,21.43
2018-01-11T10:48:35.306Z,21.4
2018-01-11T10:49:44.319Z,21.47
2018-01-11T10:50:53.529Z,21.44
2018-01-11T10:52:02.756Z,21.35
2018-01-11T10:53:11.982Z,21.4
2018-01-11T10:54:20.927Z,21.43
2018-01-11T10:55:30.142Z,21.44
2018-01-11T10:56:39.407Z,21.38
2018-01-11T10:57:48.362Z,21.43
2018-01-11T10:58:57.577Z,21.4
2018-01-11T11:00:07.126Z,21.42
2018-01-11T11:01:16.617Z,21.32
2018-01-11T11:02:25.571Z,21.38
2018-01-11T11:03:35.055Z,21.34
2018-01-11T11:04:44.547Z,21.38
2018-01-11T11:05:53.753Z,21.37
2018-01-11T11:07:02.975Z,21.34
2018-01-11T11:08:11.925Z,21.43
2018-01-11T11:09:20.638Z,21.46
2018-01-11T11:10:29.858Z,21.35
2018-01-11T11:11:39.074Z,21.46
2018-01-11T11:12:48.284Z,21.4
2018-01-11T11:13:57.285Z,21.42
2018-01-11T11:15:06.024Z,21.4
2018-01-11T11:16:15.501Z,21.4
2018-01-11T11:17:24.453Z,21.37
2018-01-11T11:18:34.191Z,21.47
2018-01-11T11:19:43.660Z,21.34
2018-01-11T11:20:53.397Z,21.42
2018-01-11T11:22:02.369Z,21.42
2018-01-11T11:23:11.841Z,21.37
2018-01-11T11:24:21.324Z,21.38
2018-01-11T11:25:30.802Z,21.34
2018-01-11T11:26:40.274Z,21.31
2018-01-11T11:27:49.247Z,21.37
2018-01-11T11:28:59.011Z,21.37
2018-01-11T11:30:07.970Z,21.37
2018-01-11T11:31:17.506Z,21.46
2018-01-11T11:32:26.525Z,21.4
2018-01-11T11:33:35.492Z,21.29
2018-01-11T11:34:44.996Z,21.43
2018-01-11T11:35:53.953Z,21.43
2018-01-11T11:37:03.483Z,21.34
2018-01-11T11:38:12.442Z,21.4
2018-01-11T11:39:21.124Z,21.35
2018-01-11T11:40:30.642Z,21.37
2018-01-11T11:41:39.367Z,21.37
2018-01-11T11:42:48.854Z,21.37
2018-01-11T11:43:58.063Z,21.4
2018-01-11T11:45:07.574Z,21.38
2018-01-11T11:46:17.081Z,21.43
2018-01-11T11:47:26.555Z,21.37
2018-01-11T11:48:35.510Z,21.31
2018-01-11T11:49:44.730Z,21.38
2018-01-11T11:50:53.946Z,21.34
2018-01-11T11:52:03.163Z,21.34
2018-01-11T11:53:12.639Z,21.31
2018-01-11T11:54:21.600Z,21.38
2018-01-11T11:55:30.843Z,21.4
2018-01-11T11:56:40.133Z,21.38
2018-01-11T11:57:49.349Z,21.37
2018-01-11T11:58:58.343Z,21.37
2018-01-11T12:00:07.566Z,21.46
2018-01-11T12:01:17.103Z,21.42
2018-01-11T12:02:25.792Z,21.38
2018-01-11T12:03:35.272Z,21.47
2018-01-11T12:04:44.561Z,21.32
2018-01-11T12:05:53.786Z,21.37
2018-01-11T12:07:03.263Z,21.37
2018-01-11T12:08:12.235Z,21.47
2018-01-11T12:09:21.206Z,21.34
2018-01-11T12:10:30.402Z,21.46
2018-01-11T12:11:39.416Z,21.4
2018-01-11T12:12:48.630Z,21.35
2018-01-11T12:13:57.584Z,21.38
2018-01-11T12:15:06.851Z,21.32
2018-01-11T12:16:16.862Z,21.37
2018-01-11T12:17:25.832Z,21.43
2018-01-11T12:18:35.315Z,21.32
2018-01-11T12:19:44.545Z,21.37
2018-01-11T12:20:54.054Z,21.34
2018-01-11T12:22:03.828Z,21.34
2018-01-11T12:23:13.307Z,21.44
2018-01-11T12:24:22.253Z,21.32
2018-01-11T12:25:30.954Z,21.44
2018-01-11T12:26:40.168Z,21.42
2018-01-11T12:27:49.747Z,21.38
2018-01-11T12:28:58.965Z,21.38
2018-01-11T12:30:08.703Z,21.43
2018-01-11T12:31:17.660Z,21.34
2018-01-11T12:32:26.622Z,21.38
2018-01-11T12:33:35.302Z,21.35
2018-01-11T12:34:44.526Z,21.34
2018-01-11T12:35:53.487Z,21.37
2018-01-11T12:37:03.256Z,21.34
2018-01-11T12:38:12.480Z,21.35
2018-01-11T12:39:21.472Z,21.37
2018-01-11T12:40:30.889Z,21.35
2018-01-11T12:41:40.119Z,21.35
2018-01-11T12:42:49.072Z,21.44
2018-01-11T12:43:58.326Z,21.4
2018-01-11T12:45:07.812Z,21.35
2018-01-11T12:46:17.050Z,21.44
2018-01-11T12:47:26.078Z,21.37
2018-01-11T12:48:35.088Z,21.4
2018-01-11T12:49:44.355Z,21.32
2018-01-11T12:50:53.844Z,21.4
2018-01-11T12:52:03.353Z,21.34
2018-01-11T12:53:12.569Z,21.44
2018-01-11T12:54:21.817Z,21.37
2018-01-11T12:55:31.280Z,21.32
2018-01-11T12:56:40.222Z,21.35
2018-01-11T12:57:49.217Z,21.34
2018-01-11T12:58:58.438Z,21.37
2018-01-11T13:00:07.629Z,21.35
2018-01-11T13:01:16.623Z,21.27
2018-01-11T13:02:25.870Z,21.29
2018-01-11T13:03:34.818Z,21.34
2018-01-11T13:04:44.289Z,21.27
2018-01-11T13:05:53.506Z,21.27
2018-01-11T13:07:02.216Z,21.31
2018-01-11T13:08:10.928Z,21.29
2018-01-11T13:09:20.136Z,21.27
2018-01-11T13:10:29.615Z,21.25
2018-01-11T13:11:38.335Z,21.32
2018-01-11T13:12:47.297Z,21.29
2018-01-11T13:13:56.302Z,21.31
2018-01-11T13:15:05.838Z,21.29
2018-01-11T13:16:14.795Z,21.24
2018-01-11T13:17:24.345Z,21.29
2018-01-11T13:18:33.557Z,21.27
2018-01-11T13:19:42.846Z,21.27
2018-01-11T13:20:52.355Z,21.28
2018-01-11T13:22:01.577Z,21.24
2018-01-11T13:23:10.946Z,21.22
2018-01-11T13:24:20.361Z,21.27
2018-01-11T13:25:29.585Z,21.27
2018-01-11T13:26:38.827Z,21.21
2018-01-11T13:27:47.528Z,21.22
2018-01-11T13:28:56.265Z,21.27
2018-01-11T13:30:05.792Z,21.28
2018-01-11T13:31:15.017Z,21.24
2018-01-11T13:32:24.244Z,21.19
2018-01-11T13:33:33.461Z,21.17
2018-01-11T13:34:42.688Z,21.21
2018-01-11T13:35:51.933Z,21.16
2018-01-11T13:37:00.924Z,21.13
2018-01-11T13:38:09.611Z,21.13
2018-01-11T13:39:18.575Z,21.19
2018-01-11T13:40:27.549Z,21.14
2018-01-11T13:41:36.495Z,21.14
2018-01-11T13:42:45.710Z,21.17
2018-01-11T13:43:54.421Z,21.16
2018-01-11T13:45:03.637Z,21.24
2018-01-11T13:46:13.119Z,21.14
2018-01-11T13:47:22.360Z,21.14
2018-01-11T13:48:31.844Z,21.19
2018-01-11T13:49:41.356Z,21.16
2018-01-11T13:50:50.317Z,21.12
2018-01-11T13:51:59.555Z,21.13
2018-01-11T13:53:08.801Z,21.12
2018-01-11T13:54:17.480Z,21.12
2018-01-11T13:55:26.448Z,21.16
2018-01-11T13:56:35.404Z,21.13
2018-01-11T13:57:44.895Z,21.13
2018-01-11T13:58:54.202Z,21.12
2018-01-11T14:00:03.409Z,21.1
2018-01-11T14:01:12.424Z,21.1
2018-01-11T14:02:21.669Z,21.06
2018-01-11T14:03:30.676Z,21.16
2018-01-11T14:04:39.405Z,21.13
2018-01-11T14:05:48.637Z,21.13
2018-01-11T14:06:57.919Z,21.13
2018-01-11T14:08:07.436Z,21.13
2018-01-11T14:09:16.936Z,21.03
2018-01-11T14:10:26.158Z,21.03
2018-01-11T14:11:34.900Z,21.04
2018-01-11T14:12:44.135Z,21.04
2018-01-11T14:13:53.869Z,21.07
2018-01-11T14:15:02.845Z,20.98
2018-01-11T14:16:12.598Z,21.07
2018-01-11T14:17:21.841Z,21.06
2018-01-11T14:18:30.762Z,21.1
2018-01-11T14:19:40.006Z,21.06
2018-01-11T14:20:49.230Z,21.04
2018-01-11T14:21:58.994Z,21.1
2018-01-11T14:23:08.224Z,21.1
2018-01-11T14:24:17.181Z,21.04
2018-01-11T14:25:26.418Z,21.03
2018-01-11T14:26:35.360Z,20.99
2018-01-11T14:27:44.982Z,21.09
2018-01-11T14:28:53.972Z,21.03
2018-01-11T14:30:03.253Z,20.98
2018-01-11T14:31:13.038Z,21.06
2018-01-11T14:32:21.994Z,20.95
2018-01-11T14:33:31.459Z,20.98
2018-01-11T14:34:40.708Z,21.01
2018-01-11T14:35:49.408Z,20.97
2018-01-11T14:36:58.634Z,21.03
2018-01-11T14:38:08.111Z,20.97
2018-01-11T14:39:17.323Z,21.03
2018-01-11T14:40:26.276Z,20.95
2018-01-11T14:41:35.505Z,20.97
2018-01-11T14:42:45.000Z,20.92
2018-01-11T14:43:53.947Z,20.98
2018-01-11T14:45:03.165Z,20.98
2018-01-11T14:46:12.387Z,20.97
2018-01-11T14:47:21.356Z,20.98
2018-01-11T14:48:30.568Z,20.97
2018-01-11T14:49:39.584Z,20.92
2018-01-11T14:50:48.553Z,20.97
2018-01-11T14:51:57.569Z,20.92
2018-01-11T14:53:06.830Z,20.98